createdAt,value
2018-01-30T01:39:09.063Z,38.50
2018-01-30T01:39:09.630Z,38.31
2018-01-30T01:39:10.231Z,38.22
2018-01-30T01:39:10.827Z,38.12
2018-01-30T01:39:11.426Z,38.41
2018-01-30T01:39:12.027Z,38.41
2018-01-30T01:39:12.633Z,38.12
2018-01-30T01:40:07.092Z,38.41
2018-01-30T01:40:07.687Z,38.41
2018-01-30T01:40:08.286Z,38.41
2018-01-30T01:40:08.888Z,38.41
2018-01-30T01:40:09.487Z,38.31
2018-01-30T01:40:10.086Z,38.31
2018-01-30T01:40:10.686Z,38.41
2018-01-30T01:40:11.287Z,38.41
2018-01-30T01:41:04.743Z,38.69
2018-01-30T01:41:05.340Z,38.60
2018-01-30T01:41:05.942Z,38.50
2018-01-30T01:41:06.542Z,38.50
2018-01-30T01:41:07.139Z,38.50
2018-01-30T01:41:07.741Z,38.50
2018-01-30T01:41:08.339Z,38.50
2018-01-30T01:41:08.939Z,38.50
2018-01-30T01:42:02.396Z,39.45
2018-01-30T01:42:02.993Z,39.64
2018-01-30T01:42:03.592Z,39.54
2018-01-30T01:42:04.192Z,39.17
2018-01-30T01:42:04.792Z,39.54
2018-01-30T01:42:05.392Z,39.17
2018-01-30T01:42:05.992Z,39.07
2018-01-30T01:42:06.591Z,39.54
2018-01-30T01:43:00.049Z,39.17
2018-01-30T01:43:00.646Z,39.17
2018-01-30T01:43:01.244Z,39.17
2018-01-30T01:43:01.846Z,39.07
2018-01-30T01:43:02.447Z,40.31
2018-01-30T01:43:03.044Z,39.17
2018-01-30T01:43:03.642Z,39.64
2018-01-30T01:43:04.244Z,39.17
2018-01-30T01:43:58.723Z,39.73
2018-01-30T01:43:59.319Z,40.02
2018-01-30T01:43:59.921Z,39.73
2018-01-30T01:44:00.521Z,39.73
2018-01-30T01:44:01.120Z,39.83
2018-01-30T01:44:01.718Z,39.83
2018-01-30T01:44:02.319Z,39.83
2018-01-30T01:44:02.956Z,39.64
2018-01-30T01:44:56.411Z,40.69
2018-01-30T01:44:56.980Z,40.59
2018-01-30T01:44:57.574Z,40.69
2018-01-30T01:44:58.174Z,40.21
2018-01-30T01:44:58.773Z,40.12
2018-01-30T01:44:59.373Z,40.50
2018-01-30T01:44:59.973Z,40.40
2018-01-30T01:45:00.571Z,40.59
2018-01-30T01:45:54.116Z,40.97
2018-01-30T01:45:54.625Z,40.97
2018-01-30T01:45:55.226Z,40.97
2018-01-30T01:45:55.824Z,40.97
2018-01-30T01:45:56.426Z,40.97
2018-01-30T01:45:57.025Z,40.88
2018-01-30T01:45:57.624Z,41.25
2018-01-30T01:45:58.227Z,41.06
2018-01-30T01:46:51.681Z,41.92
2018-01-30T01:46:52.277Z,42.01
2018-01-30T01:46:52.878Z,42.01
2018-01-30T01:46:53.477Z,41.92
2018-01-30T01:46:54.077Z,42.20
2018-01-30T01:46:54.676Z,42.20
2018-01-30T01:46:55.277Z,42.20
2018-01-30T01:46:55.876Z,42.11
2018-01-30T01:47:50.356Z,42.68
2018-01-30T01:47:50.953Z,42.68
2018-01-30T01:47:51.551Z,42.77
2018-01-30T01:47:52.151Z,42.68
2018-01-30T01:47:52.753Z,42.77
2018-01-30T01:47:53.352Z,42.58
2018-01-30T01:47:53.952Z,42.68
2018-01-30T01:47:54.551Z,42.77
2018-01-30T01:48:48.008Z,43.53
2018-01-30T01:48:48.605Z,43.72
2018-01-30T01:48:49.204Z,43.43
2018-01-30T01:48:49.804Z,43.84
2018-01-30T01:48:50.405Z,43.91
2018-01-30T01:48:51.005Z,43.62
2018-01-30T01:48:51.604Z,43.82
2018-01-30T01:48:52.205Z,43.82
2018-01-30T01:49:45.660Z,43.72
2018-01-30T01:49:46.256Z,43.91
2018-01-30T01:49:46.857Z,43.74
2018-01-30T01:49:47.457Z,43.62
2018-01-30T01:49:48.056Z,43.65
2018-01-30T01:49:48.664Z,43.53
2018-01-30T01:49:49.258Z,43.43
2018-01-30T01:49:49.861Z,43.62
2018-01-30T01:50:44.366Z,44.50
2018-01-30T01:50:44.932Z,44.50
2018-01-30T01:50:45.532Z,44.60
2018-01-30T01:50:46.131Z,44.48
2018-01-30T01:50:46.732Z,44.57
2018-01-30T01:50:47.331Z,44.76
2018-01-30T01:50:47.932Z,44.48
2018-01-30T01:50:48.531Z,44.57
2018-01-30T01:51:43.012Z,44.88
2018-01-30T01:51:43.607Z,44.88
2018-01-30T01:51:44.206Z,44.69
2018-01-30T01:51:44.812Z,44.50
2018-01-30T01:51:45.406Z,44.50
2018-01-30T01:51:46.006Z,44.50
2018-01-30T01:51:46.606Z,44.60
2018-01-30T01:51:47.206Z,44.50
2018-01-30T01:52:41.687Z,45.73
2018-01-30T01:52:42.284Z,45.83
2018-01-30T01:52:42.883Z,45.83
2018-01-30T01:52:43.485Z,45.64
2018-01-30T01:52:44.102Z,45.73
2018-01-30T01:52:44.682Z,45.83
2018-01-30T01:52:45.283Z,45.73
2018-01-30T01:52:45.880Z,45.73
2018-01-30T01:53:39.339Z,46.02
2018-01-30T01:53:39.937Z,45.92
2018-01-30T01:53:40.535Z,46.02
2018-01-30T01:53:41.138Z,46.02
2018-01-30T01:53:41.736Z,46.02
2018-01-30T01:53:42.336Z,46.02
2018-01-30T01:53:42.937Z,46.02
2018-01-30T01:53:43.537Z,46.02
2018-01-30T01:54:36.990Z,47.53
2018-01-30T01:54:37.587Z,47.53
2018-01-30T01:54:38.187Z,47.44
2018-01-30T01:54:38.789Z,47.53
2018-01-30T01:54:39.387Z,47.63
2018-01-30T01:54:39.987Z,47.53
2018-01-30T01:54:40.596Z,47.63
2018-01-30T01:54:41.189Z,47.73
2018-01-30T01:55:34.642Z,48.86
2018-01-30T01:55:35.238Z,48.86
2018-01-30T01:55:35.840Z,48.86
2018-01-30T01:55:36.440Z,48.86
2018-01-30T01:55:37.038Z,48.96
2018-01-30T01:55:37.640Z,48.96
2018-01-30T01:55:38.237Z,48.96
2018-01-30T01:55:38.843Z,48.96
2018-01-30T01:56:32.319Z,50.38
2018-01-30T01:56:32.892Z,50.20
2018-01-30T01:56:33.491Z,50.38
2018-01-30T01:56:34.091Z,50.48
2018-01-30T01:56:34.691Z,50.48
2018-01-30T01:56:35.291Z,50.67
2018-01-30T01:56:35.901Z,50.67
2018-01-30T01:56:36.489Z,50.76
2018-01-30T01:57:31.482Z,51.14
2018-01-30T01:57:32.078Z,51.14
2018-01-30T01:57:32.677Z,51.05
2018-01-30T01:57:33.278Z,51.14
2018-01-30T01:57:33.877Z,50.95
2018-01-30T01:57:34.477Z,50.95
2018-01-30T01:58:29.441Z,51.24
2018-01-30T01:58:30.037Z,51.24
2018-01-30T01:58:30.636Z,51.43
2018-01-30T01:58:31.235Z,50.76
2018-01-30T01:58:31.835Z,51.52
2018-01-30T01:58:32.435Z,51.52
2018-01-30T01:58:33.036Z,51.52
2018-01-30T01:58:33.634Z,51.24
2018-01-30T01:59:27.093Z,51.40
2018-01-30T01:59:27.689Z,51.33
2018-01-30T01:59:28.288Z,51.33
2018-01-30T01:59:28.888Z,51.33
2018-01-30T01:59:29.489Z,51.43
2018-01-30T01:59:30.091Z,51.43
2018-01-30T01:59:30.687Z,51.33
2018-01-30T01:59:31.289Z,51.33
2018-01-30T02:00:24.744Z,51.21
2018-01-30T02:00:25.359Z,51.43
2018-01-30T02:00:25.943Z,51.33
2018-01-30T02:00:26.542Z,51.43
2018-01-30T02:00:27.140Z,50.86
2018-01-30T02:00:27.741Z,51.33
2018-01-30T02:00:28.344Z,51.43
2018-01-30T02:00:28.942Z,50.86
2018-01-30T02:01:22.428Z,52.00
2018-01-30T02:01:22.993Z,51.97
2018-01-30T02:01:23.593Z,51.81
2018-01-30T02:01:24.195Z,51.52
2018-01-30T02:01:24.793Z,51.90
2018-01-30T02:01:25.393Z,51.87
2018-01-30T02:01:25.997Z,52.00
2018-01-30T02:01:26.592Z,51.72
2018-01-30T02:02:20.561Z,51.90
2018-01-30T02:02:21.164Z,52.00
2018-01-30T02:02:21.755Z,51.72
2018-01-30T02:02:22.356Z,51.90
2018-01-30T02:02:22.955Z,51.72
2018-01-30T02:02:23.555Z,51.90
2018-01-30T02:02:24.156Z,51.90
2018-01-30T02:03:17.699Z,52.76
2018-01-30T02:03:18.296Z,52.76
2018-01-30T02:03:18.896Z,52.66
2018-01-30T02:03:19.496Z,52.66
2018-01-30T02:03:20.099Z,52.56
2018-01-30T02:03:20.697Z,52.73
2018-01-30T02:03:21.298Z,52.76
2018-01-30T02:03:21.897Z,52.66
2018-01-30T02:04:15.353Z,52.26
2018-01-30T02:04:15.948Z,52.28
2018-01-30T02:04:16.548Z,52.37
2018-01-30T02:04:17.149Z,52.19
2018-01-30T02:04:17.747Z,52.19
2018-01-30T02:04:18.347Z,52.47
2018-01-30T02:04:18.951Z,52.56
2018-01-30T02:04:19.547Z,52.09
2018-01-30T02:05:13.004Z,53.04
2018-01-30T02:05:13.600Z,52.66
2018-01-30T02:05:14.200Z,52.56
2018-01-30T02:05:14.799Z,52.76
2018-01-30T02:05:15.403Z,52.66
2018-01-30T02:05:16.000Z,52.85
2018-01-30T02:05:16.605Z,53.14
2018-01-30T02:05:17.199Z,52.83
2018-01-30T02:06:10.656Z,52.95
2018-01-30T02:06:11.252Z,52.83
2018-01-30T02:06:11.851Z,52.85
2018-01-30T02:06:12.451Z,53.14
2018-01-30T02:06:13.051Z,52.83
2018-01-30T02:06:13.652Z,53.14
2018-01-30T02:06:14.254Z,52.83
2018-01-30T02:06:14.851Z,52.85
2018-01-30T02:07:08.334Z,52.64
2018-01-30T02:07:08.905Z,52.73
2018-01-30T02:07:09.503Z,52.73
2018-01-30T02:07:10.103Z,52.73
2018-01-30T02:07:10.703Z,52.73
2018-01-30T02:07:11.304Z,52.73
2018-01-30T02:07:11.924Z,52.73
2018-01-30T02:07:12.502Z,52.85
2018-01-30T02:08:05.958Z,52.54
2018-01-30T02:08:06.553Z,52.64
2018-01-30T02:08:07.154Z,52.64
2018-01-30T02:08:07.765Z,52.64
2018-01-30T02:08:08.354Z,52.64
2018-01-30T02:08:08.954Z,52.64
2018-01-30T02:08:09.559Z,52.56
2018-01-30T02:08:10.155Z,52.54
2018-01-30T02:09:03.612Z,52.06
2018-01-30T02:09:04.206Z,52.26
2018-01-30T02:09:04.807Z,52.09
2018-01-30T02:09:05.405Z,52.45
2018-01-30T02:09:06.005Z,52.64
2018-01-30T02:09:06.606Z,52.64
2018-01-30T02:09:07.208Z,52.73
2018-01-30T02:09:07.835Z,52.54
2018-01-30T02:10:01.261Z,52.45
2018-01-30T02:10:01.858Z,51.68
2018-01-30T02:10:02.458Z,51.68
2018-01-30T02:10:03.057Z,51.87
2018-01-30T02:10:03.656Z,51.87
2018-01-30T02:10:04.258Z,52.35
2018-01-30T02:10:04.859Z,51.59
2018-01-30T02:10:05.481Z,51.59
2018-01-30T02:10:58.914Z,52.35
2018-01-30T02:10:59.510Z,51.87
2018-01-30T02:11:00.109Z,52.06
2018-01-30T02:11:00.709Z,51.97
2018-01-30T02:11:01.309Z,52.16
2018-01-30T02:11:01.909Z,51.59
2018-01-30T02:11:02.512Z,52.35
2018-01-30T02:11:03.109Z,52.06
2018-01-30T02:11:56.596Z,51.31
2018-01-30T02:11:57.162Z,51.68
2018-01-30T02:11:57.763Z,51.40
2018-01-30T02:11:58.365Z,51.40
2018-01-30T02:11:58.960Z,51.31
2018-01-30T02:11:59.560Z,51.59
2018-01-30T02:12:00.164Z,51.87
2018-01-30T02:12:00.763Z,51.31
2018-01-30T02:12:54.217Z,52.35
2018-01-30T02:12:54.812Z,51.68
2018-01-30T02:12:55.414Z,52.35
2018-01-30T02:12:56.015Z,52.06
2018-01-30T02:12:56.612Z,52.35
2018-01-30T02:12:57.212Z,52.06
2018-01-30T02:12:57.815Z,51.78
2018-01-30T02:12:58.412Z,52.26
2018-01-30T02:13:51.872Z,51.68
2018-01-30T02:13:52.465Z,51.59
2018-01-30T02:13:53.064Z,51.97
2018-01-30T02:13:53.663Z,51.59
2018-01-30T02:13:54.264Z,51.68
2018-01-30T02:13:54.868Z,51.87
2018-01-30T02:13:55.470Z,51.87
2018-01-30T02:13:56.064Z,51.87
2018-01-30T02:14:49.622Z,51.68
2018-01-30T02:14:50.220Z,51.87
2018-01-30T02:14:50.820Z,51.68
2018-01-30T02:14:51.419Z,51.68
2018-01-30T02:14:52.020Z,51.87
2018-01-30T02:14:52.620Z,51.68
2018-01-30T02:14:53.221Z,51.97
2018-01-30T02:14:53.818Z,51.97
2018-01-30T02:15:47.275Z,51.87
2018-01-30T02:15:47.873Z,51.97
2018-01-30T02:15:48.471Z,51.87
2018-01-30T02:15:49.070Z,51.59
2018-01-30T02:15:49.671Z,51.97
2018-01-30T02:15:50.277Z,51.87
2018-01-30T02:15:50.873Z,51.87
2018-01-30T02:15:51.470Z,51.87
2018-01-30T02:16:44.924Z,51.40
2018-01-30T02:16:45.522Z,51.50
2018-01-30T02:16:46.122Z,51.50
2018-01-30T02:16:46.721Z,51.31
2018-01-30T02:16:47.321Z,51.40
2018-01-30T02:16:47.922Z,51.31
2018-01-30T02:16:48.523Z,51.59
2018-01-30T02:16:49.122Z,51.31
2018-01-30T02:17:42.609Z,52.45
2018-01-30T02:17:43.177Z,52.35
2018-01-30T02:17:43.774Z,52.35
2018-01-30T02:17:44.374Z,52.45
2018-01-30T02:17:44.973Z,52.35
2018-01-30T02:17:45.573Z,52.35
2018-01-30T02:17:46.173Z,51.87
2018-01-30T02:17:46.773Z,51.59
2018-01-30T02:18:40.231Z,52.06
2018-01-30T02:18:40.825Z,52.35
2018-01-30T02:18:41.423Z,52.35
2018-01-30T02:18:42.036Z,52.54
2018-01-30T02:18:42.624Z,52.06
2018-01-30T02:18:43.226Z,52.45
2018-01-30T02:18:43.829Z,52.26
2018-01-30T02:18:44.426Z,52.16
2018-01-30T02:19:37.880Z,52.73
2018-01-30T02:19:38.475Z,52.83
2018-01-30T02:19:39.077Z,52.73
2018-01-30T02:19:39.677Z,52.92
2018-01-30T02:19:40.277Z,52.83
2018-01-30T02:19:40.878Z,52.73
2018-01-30T02:19:41.479Z,52.83
2018-01-30T02:19:42.075Z,52.83
2018-01-30T02:20:35.532Z,52.54
2018-01-30T02:20:36.129Z,52.92
2018-01-30T02:20:36.729Z,52.92
2018-01-30T02:20:37.328Z,52.64
2018-01-30T02:20:37.928Z,52.83
2018-01-30T02:20:38.532Z,52.73
2018-01-30T02:20:39.129Z,52.83
2018-01-30T02:20:39.727Z,53.11
2018-01-30T02:21:33.184Z,53.20
2018-01-30T02:21:33.781Z,53.20
2018-01-30T02:21:34.381Z,53.20
2018-01-30T02:21:34.980Z,53.20
2018-01-30T02:21:35.581Z,53.30
2018-01-30T02:21:36.183Z,53.11
2018-01-30T02:21:36.788Z,53.30
2018-01-30T02:21:37.379Z,53.20
2018-01-30T02:22:30.838Z,53.77
2018-01-30T02:22:31.431Z,53.77
2018-01-30T02:22:32.032Z,53.77
2018-01-30T02:22:32.632Z,53.68
2018-01-30T02:22:33.230Z,53.68
2018-01-30T02:22:33.833Z,53.68
2018-01-30T02:22:34.433Z,53.77
2018-01-30T02:22:35.032Z,53.87
2018-01-30T02:23:28.518Z,53.68
2018-01-30T02:23:29.084Z,53.68
2018-01-30T02:23:29.686Z,53.87
2018-01-30T02:23:30.284Z,53.77
2018-01-30T02:23:30.883Z,53.58
2018-01-30T02:23:31.486Z,53.68
2018-01-30T02:23:32.085Z,53.96
2018-01-30T02:23:32.682Z,53.87
2018-01-30T02:24:26.136Z,54.44
2018-01-30T02:24:26.735Z,53.77
2018-01-30T02:24:27.336Z,54.15
2018-01-30T02:24:27.935Z,53.68
2018-01-30T02:24:28.535Z,53.87
2018-01-30T02:24:29.137Z,53.87
2018-01-30T02:24:29.736Z,54.25
2018-01-30T02:24:30.352Z,54.34
2018-01-30T02:52:54.512Z,46.00
2018-01-30T02:52:55.083Z,46.00
2018-01-30T02:52:55.683Z,45.90
2018-01-30T02:52:56.283Z,46.09
2018-01-30T02:52:56.882Z,46.09
2018-01-30T02:52:57.484Z,46.00
2018-01-30T02:52:58.084Z,46.00
2018-01-30T02:52:58.682Z,46.00
2018-01-30T02:53:52.140Z,45.52
2018-01-30T02:53:52.735Z,45.62
2018-01-30T02:53:53.334Z,45.62
2018-01-30T02:53:53.935Z,45.71
2018-01-30T02:53:54.534Z,45.71
2018-01-30T02:53:55.134Z,45.71
2018-01-30T02:53:55.742Z,45.71
2018-01-30T02:53:56.335Z,45.71
2018-01-30T02:54:49.792Z,45.24
2018-01-30T02:54:50.388Z,45.33
2018-01-30T02:54:50.988Z,45.24
2018-01-30T02:54:51.595Z,45.14
2018-01-30T02:54:52.187Z,45.33
2018-01-30T02:54:52.786Z,45.33
2018-01-30T02:54:53.388Z,45.33
2018-01-30T02:54:53.989Z,45.24
2018-01-30T02:55:47.445Z,44.85
2018-01-30T02:55:48.040Z,44.85
2018-01-30T02:55:48.657Z,44.95
2018-01-30T02:55:49.239Z,44.85
2018-01-30T02:55:49.839Z,45.24
2018-01-30T02:55:50.440Z,44.76
2018-01-30T02:55:51.087Z,45.05
2018-01-30T02:55:51.671Z,45.24
2018-01-30T02:56:45.128Z,44.95
2018-01-30T02:56:45.692Z,44.85
2018-01-30T02:56:46.291Z,44.85
2018-01-30T02:56:46.889Z,44.85
2018-01-30T02:56:47.498Z,45.24
2018-01-30T02:56:48.099Z,44.76
2018-01-30T02:56:48.692Z,44.85
2018-01-30T02:56:49.292Z,45.24
2018-01-30T02:57:42.746Z,44.20
2018-01-30T02:57:43.343Z,44.38
2018-01-30T02:57:43.943Z,44.29
2018-01-30T02:57:44.547Z,44.01
2018-01-30T02:57:45.144Z,44.01
2018-01-30T02:57:45.744Z,44.29
2018-01-30T02:57:46.342Z,44.01
2018-01-30T02:57:46.943Z,44.20
2018-01-30T02:58:40.398Z,44.01
2018-01-30T02:58:40.996Z,44.01
2018-01-30T02:58:41.599Z,43.82
2018-01-30T02:58:42.195Z,43.91
2018-01-30T02:58:42.796Z,43.72
2018-01-30T02:58:43.398Z,44.01
2018-01-30T02:58:43.998Z,44.01
2018-01-30T02:58:44.594Z,43.91
2018-01-30T02:59:38.051Z,43.53
2018-01-30T02:59:38.650Z,43.43
2018-01-30T02:59:39.248Z,43.62
2018-01-30T02:59:39.847Z,43.72
2018-01-30T02:59:40.447Z,43.62
2018-01-30T02:59:41.050Z,43.62
2018-01-30T02:59:41.652Z,43.53
2018-01-30T02:59:42.247Z,43.53
2018-01-30T03:00:35.703Z,43.62
2018-01-30T03:00:36.300Z,43.62
2018-01-30T03:00:36.898Z,43.43
2018-01-30T03:00:37.501Z,43.43
2018-01-30T03:00:38.097Z,43.53
2018-01-30T03:00:38.703Z,43.43
2018-01-30T03:00:39.302Z,43.62
2018-01-30T03:00:39.899Z,43.62
2018-01-30T03:01:33.356Z,43.53
2018-01-30T03:01:33.951Z,43.34
2018-01-30T03:01:34.551Z,43.53
2018-01-30T03:01:35.154Z,43.53
2018-01-30T03:01:35.751Z,43.53
2018-01-30T03:01:36.350Z,43.53
2018-01-30T03:01:36.952Z,43.53
2018-01-30T03:01:37.550Z,43.53
2018-01-30T03:02:31.038Z,43.34
2018-01-30T03:02:31.603Z,43.53
2018-01-30T03:02:32.203Z,43.53
2018-01-30T03:02:32.804Z,43.53
2018-01-30T03:02:33.402Z,43.53
2018-01-30T03:02:34.008Z,43.43
2018-01-30T03:02:34.604Z,43.53
2018-01-30T03:02:35.207Z,43.62
2018-01-30T03:03:28.659Z,43.53
2018-01-30T03:03:29.255Z,43.34
2018-01-30T03:03:29.856Z,43.62
2018-01-30T03:03:30.454Z,43.43
2018-01-30T03:03:31.054Z,43.43
2018-01-30T03:03:31.655Z,43.53
2018-01-30T03:03:32.254Z,43.53
2018-01-30T03:03:32.854Z,43.53
2018-01-30T03:04:26.416Z,43.43
2018-01-30T03:04:27.010Z,43.53
2018-01-30T03:04:27.609Z,43.53
2018-01-30T03:04:28.209Z,43.43
2018-01-30T03:04:28.810Z,43.53
2018-01-30T03:04:29.410Z,43.53
2018-01-30T03:04:30.009Z,43.53
2018-01-30T03:04:30.609Z,43.72
2018-01-30T03:05:24.067Z,43.53
2018-01-30T03:05:24.661Z,43.53
2018-01-30T03:05:25.262Z,43.62
2018-01-30T03:05:25.863Z,43.43
2018-01-30T03:05:26.459Z,43.34
2018-01-30T03:05:27.061Z,43.53
2018-01-30T03:05:27.661Z,43.43
2018-01-30T03:05:28.259Z,43.43
2018-01-30T03:06:21.720Z,43.53
2018-01-30T03:06:22.312Z,43.53
2018-01-30T03:06:22.913Z,43.53
2018-01-30T03:06:23.512Z,43.72
2018-01-30T03:06:24.112Z,43.72
2018-01-30T03:06:24.712Z,43.53
2018-01-30T03:06:25.312Z,43.53
2018-01-30T03:06:25.910Z,43.62
2018-01-30T03:07:19.369Z,43.91
2018-01-30T03:07:19.964Z,43.91
2018-01-30T03:07:20.565Z,43.82
2018-01-30T03:07:21.163Z,43.72
2018-01-30T03:07:21.764Z,43.82
2018-01-30T03:07:22.364Z,43.82
2018-01-30T03:07:22.965Z,43.82
2018-01-30T03:07:23.563Z,43.82
2018-01-30T03:08:17.047Z,43.82
2018-01-30T03:08:17.615Z,43.91
2018-01-30T03:08:18.215Z,43.91
2018-01-30T03:08:18.817Z,44.01
2018-01-30T03:08:19.416Z,43.82
2018-01-30T03:08:20.016Z,43.91
2018-01-30T03:08:20.615Z,43.72
2018-01-30T03:08:21.215Z,43.62
2018-01-30T03:09:14.673Z,43.82
2018-01-30T03:09:15.267Z,43.91
2018-01-30T03:09:15.868Z,43.91
2018-01-30T03:09:16.467Z,44.01
2018-01-30T03:09:17.067Z,43.82
2018-01-30T03:09:17.668Z,43.82
2018-01-30T03:09:18.268Z,43.82
2018-01-30T03:09:18.867Z,43.82
2018-01-30T03:10:12.325Z,43.91
2018-01-30T03:10:12.919Z,43.72
2018-01-30T03:10:13.519Z,43.82
2018-01-30T03:10:14.119Z,43.82
2018-01-30T03:10:14.721Z,43.82
2018-01-30T03:10:15.317Z,44.38
2018-01-30T03:10:15.919Z,43.62
2018-01-30T03:10:16.516Z,43.72
2018-01-30T03:11:09.975Z,44.01
2018-01-30T03:11:10.572Z,43.82
2018-01-30T03:11:11.171Z,43.72
2018-01-30T03:11:11.772Z,44.29
2018-01-30T03:11:12.375Z,44.01
2018-01-30T03:11:12.971Z,44.01
2018-01-30T03:11:13.571Z,44.20
2018-01-30T03:11:14.170Z,43.72
2018-01-30T03:12:07.655Z,44.67
2018-01-30T03:12:08.222Z,45.05
2018-01-30T03:12:08.823Z,44.85
2018-01-30T03:12:09.422Z,44.85
2018-01-30T03:12:10.023Z,44.95
2018-01-30T03:12:10.621Z,44.85
2018-01-30T03:12:11.222Z,44.85
2018-01-30T03:12:11.822Z,44.95
2018-01-30T03:13:05.278Z,44.95
2018-01-30T03:13:05.874Z,44.95
2018-01-30T03:13:06.482Z,44.76
2018-01-30T03:13:07.075Z,44.85
2018-01-30T03:13:07.674Z,44.76
2018-01-30T03:13:08.275Z,44.85
2018-01-30T03:13:08.875Z,44.85
2018-01-30T03:13:09.474Z,44.95
2018-01-30T03:14:02.963Z,45.62
2018-01-30T03:14:03.526Z,45.52
2018-01-30T03:14:04.127Z,45.52
2018-01-30T03:14:04.725Z,45.52
2018-01-30T03:14:05.324Z,45.52
2018-01-30T03:14:05.927Z,45.52
2018-01-30T03:14:06.525Z,46.09
2018-01-30T03:14:07.125Z,45.43
2018-01-30T03:15:00.584Z,46.37
2018-01-30T03:15:01.178Z,46.37
2018-01-30T03:15:01.779Z,46.19
2018-01-30T03:15:02.377Z,46.47
2018-01-30T03:15:02.979Z,46.28
2018-01-30T03:15:03.584Z,46.28
2018-01-30T03:15:04.177Z,46.28
2018-01-30T03:15:04.776Z,46.28
2018-01-30T03:15:58.744Z,47.42
2018-01-30T03:15:59.340Z,47.71
2018-01-30T03:15:59.939Z,47.42
2018-01-30T03:16:00.542Z,47.42
2018-01-30T03:16:01.143Z,47.42
2018-01-30T03:16:01.740Z,47.32
2018-01-30T03:16:02.340Z,47.52
2018-01-30T03:16:55.782Z,47.52
2018-01-30T03:16:56.382Z,47.71
2018-01-30T03:16:56.979Z,47.42
2018-01-30T03:16:57.578Z,47.71
2018-01-30T03:16:58.177Z,47.42
2018-01-30T03:16:58.777Z,47.42
2018-01-30T03:16:59.378Z,47.80
2018-01-30T03:16:59.978Z,47.61
2018-01-30T03:17:53.440Z,47.61
2018-01-30T03:17:54.033Z,47.99
2018-01-30T03:17:54.631Z,47.80
2018-01-30T03:17:55.231Z,47.71
2018-01-30T03:17:55.829Z,47.99
2018-01-30T03:17:56.431Z,47.80
2018-01-30T03:17:57.030Z,47.89
2018-01-30T03:17:57.629Z,47.71
2018-01-30T03:18:52.622Z,48.08
2018-01-30T03:18:53.217Z,48.27
2018-01-30T03:18:53.816Z,48.27
2018-01-30T03:18:54.417Z,48.36
2018-01-30T03:18:55.017Z,48.18
2018-01-30T03:18:55.616Z,48.46
2018-01-30T03:18:56.216Z,47.99
2018-01-30T03:19:49.794Z,48.65
2018-01-30T03:19:50.359Z,48.94
2018-01-30T03:19:50.958Z,48.56
2018-01-30T03:19:51.559Z,48.75
2018-01-30T03:19:52.157Z,48.56
2018-01-30T03:19:52.759Z,48.75
2018-01-30T03:19:53.358Z,48.84
2018-01-30T03:19:53.958Z,48.75
2018-01-30T03:20:47.414Z,49.32
2018-01-30T03:20:48.009Z,49.32
2018-01-30T03:20:48.609Z,49.41
2018-01-30T03:20:49.210Z,49.41
2018-01-30T03:20:49.809Z,49.32
2018-01-30T03:20:50.412Z,49.41
2018-01-30T03:20:51.009Z,49.22
2018-01-30T03:20:51.609Z,49.32
2018-01-30T03:21:45.065Z,49.22
2018-01-30T03:21:45.661Z,49.22
2018-01-30T03:21:46.261Z,49.32
2018-01-30T03:21:46.861Z,49.32
2018-01-30T03:21:47.467Z,49.41
2018-01-30T03:21:48.061Z,49.32
2018-01-30T03:21:48.659Z,49.51
2018-01-30T03:21:49.260Z,49.22
2018-01-30T03:22:43.741Z,49.88
2018-01-30T03:22:44.337Z,49.79
2018-01-30T03:22:44.937Z,49.88
2018-01-30T03:22:45.537Z,49.88
2018-01-30T03:22:46.136Z,49.79
2018-01-30T03:22:46.739Z,49.88
2018-01-30T03:22:47.336Z,49.88
2018-01-30T03:22:47.936Z,49.88
2018-01-30T03:23:41.479Z,50.36
2018-01-30T03:23:41.990Z,50.26
2018-01-30T03:23:42.588Z,50.36
2018-01-30T03:23:43.188Z,50.36
2018-01-30T03:23:43.789Z,50.36
2018-01-30T03:23:44.390Z,50.26
2018-01-30T03:23:44.988Z,50.26
2018-01-30T03:23:45.587Z,50.26
2018-01-30T03:24:39.045Z,50.17
2018-01-30T03:24:39.640Z,50.17
2018-01-30T03:24:40.240Z,50.17
2018-01-30T03:24:40.841Z,50.17
2018-01-30T03:24:41.441Z,50.07
2018-01-30T03:24:42.041Z,50.17
2018-01-30T03:24:42.640Z,50.26
2018-01-30T03:24:43.239Z,50.26
2018-01-30T03:25:36.727Z,51.68
2018-01-30T03:25:37.293Z,51.50
2018-01-30T03:25:37.896Z,50.93
2018-01-30T03:25:38.493Z,50.74
2018-01-30T03:25:39.092Z,51.68
2018-01-30T03:25:39.693Z,51.68
2018-01-30T03:25:40.292Z,51.68
2018-01-30T03:25:40.893Z,50.83
2018-01-30T03:26:34.347Z,52.06
2018-01-30T03:26:34.947Z,52.06
2018-01-30T03:26:35.544Z,52.06
2018-01-30T03:26:36.144Z,51.97
2018-01-30T03:26:36.743Z,52.06
2018-01-30T03:26:37.344Z,52.26
2018-01-30T03:26:37.943Z,51.97
2018-01-30T03:26:38.544Z,51.97
2018-01-30T03:27:31.999Z,52.83
2018-01-30T03:27:32.595Z,52.73
2018-01-30T03:27:33.196Z,52.73
2018-01-30T03:27:33.796Z,52.83
2018-01-30T03:27:34.394Z,52.73
2018-01-30T03:27:34.995Z,52.83
2018-01-30T03:27:35.596Z,52.73
2018-01-30T03:27:36.194Z,52.73
2018-01-30T03:28:29.654Z,52.73
2018-01-30T03:28:30.248Z,52.64
2018-01-30T03:28:30.847Z,52.73
2018-01-30T03:28:31.448Z,52.06
2018-01-30T03:28:32.048Z,52.64
2018-01-30T03:28:32.648Z,52.06
2018-01-30T03:28:33.246Z,52.26
2018-01-30T03:28:33.848Z,52.06
2018-01-30T03:29:27.303Z,52.45
2018-01-30T03:29:27.898Z,52.45
2018-01-30T03:29:28.498Z,52.26
2018-01-30T03:29:29.099Z,52.26
2018-01-30T03:29:29.699Z,52.26
2018-01-30T03:29:30.329Z,52.73
2018-01-30T03:29:30.898Z,52.26
2018-01-30T03:29:31.499Z,52.26
2018-01-30T03:30:24.953Z,52.64
2018-01-30T03:30:25.551Z,52.73
2018-01-30T03:30:26.152Z,52.64
2018-01-30T03:30:26.752Z,52.73
2018-01-30T03:30:27.350Z,52.64
2018-01-30T03:30:27.952Z,52.64
2018-01-30T03:30:28.551Z,52.73
2018-01-30T03:30:29.149Z,52.83
2018-01-30T03:31:22.634Z,53.30
2018-01-30T03:31:23.204Z,53.02
2018-01-30T03:31:23.803Z,53.20
2018-01-30T03:31:24.406Z,53.39
2018-01-30T03:31:25.001Z,53.30
2018-01-30T03:31:25.602Z,53.39
2018-01-30T03:31:26.205Z,53.30
2018-01-30T03:31:26.802Z,53.30
2018-01-30T03:32:20.326Z,53.77
2018-01-30T03:32:20.862Z,53.87
2018-01-30T03:32:21.461Z,53.87
2018-01-30T03:32:22.061Z,53.58
2018-01-30T03:32:22.662Z,53.77
2018-01-30T03:32:23.261Z,54.06
2018-01-30T03:32:23.861Z,53.96
2018-01-30T03:32:24.460Z,53.96
2018-01-30T03:33:18.940Z,53.96
2018-01-30T03:33:19.538Z,53.68
2018-01-30T03:33:20.138Z,53.77
2018-01-30T03:33:20.739Z,53.77
2018-01-30T03:33:21.337Z,53.68
2018-01-30T03:33:21.936Z,53.96
2018-01-30T03:33:22.536Z,53.68
2018-01-30T03:33:23.136Z,53.77
2018-01-30T03:34:16.630Z,54.06
2018-01-30T03:34:17.190Z,54.25
2018-01-30T03:34:17.789Z,54.25
2018-01-30T03:34:18.389Z,54.25
2018-01-30T03:34:18.988Z,54.34
2018-01-30T03:34:19.590Z,54.34
2018-01-30T03:34:20.190Z,54.34
2018-01-30T03:34:20.789Z,54.15
2018-01-30T03:35:15.267Z,54.53
2018-01-30T03:35:15.865Z,54.63
2018-01-30T03:35:16.463Z,54.63
2018-01-30T03:35:17.064Z,54.82
2018-01-30T03:35:17.663Z,54.63
2018-01-30T03:35:18.264Z,54.63
2018-01-30T03:35:18.864Z,54.72
2018-01-30T03:35:19.463Z,54.72
2018-01-30T03:36:13.944Z,54.63
2018-01-30T03:36:14.543Z,54.34
2018-01-30T03:36:15.139Z,55.10
2018-01-30T03:36:15.740Z,55.00
2018-01-30T03:36:16.339Z,54.72
2018-01-30T03:36:16.938Z,55.00
2018-01-30T03:36:17.538Z,54.82
2018-01-30T03:36:18.138Z,54.82
2018-01-30T03:37:12.619Z,55.57
2018-01-30T03:37:13.216Z,54.91
2018-01-30T03:37:13.817Z,55.19
2018-01-30T03:37:14.415Z,55.48
2018-01-30T03:37:15.015Z,55.76
2018-01-30T03:37:15.615Z,55.86
2018-01-30T03:37:16.215Z,55.96
2018-01-30T03:37:16.816Z,55.96
2018-01-30T03:38:11.295Z,55.76
2018-01-30T03:38:11.892Z,55.67
2018-01-30T03:38:12.493Z,55.96
2018-01-30T03:38:13.093Z,55.96
2018-01-30T03:38:13.691Z,55.86
2018-01-30T03:38:14.290Z,56.24
2018-01-30T03:38:14.891Z,55.96
2018-01-30T03:38:15.490Z,55.76
2018-01-30T03:39:08.948Z,55.96
2018-01-30T03:39:09.545Z,55.96
2018-01-30T03:39:10.144Z,55.96
2018-01-30T03:39:10.743Z,55.76
2018-01-30T03:39:11.342Z,55.76
2018-01-30T03:39:11.943Z,55.96
2018-01-30T03:39:12.544Z,55.96
2018-01-30T03:39:13.144Z,55.96
2018-01-30T03:40:06.625Z,56.62
2018-01-30T03:40:07.196Z,56.71
2018-01-30T03:40:07.796Z,56.71